Richmond, British Columbia

10:11 AM PDT on 五月 29, 2017 (GMT -0700)
Burkeville | | Change Station

高度 6 ft 49.19 °N, 123.15 °W | Updated 1 second ago

Partly Cloudy
所により曇
64.4 °F
体感気温 64.4 °F
2.0
風 変数 風 から 南東
Gusts 8.0 Mph

今日
高い -- | 低 -- °F
--% 降水確率
昨日
高い -- | 低 -- °F
Precip. -- インチ
気圧 30.04 インチ
視程 20.0 マイル
わずか 21000 ft
露点温度 53 °F
湿度 66%
降水 0.00 インチ
積雪深 利用不可。
5:14 AM 9:06 PM
三日月, 21% visible
METAR CYVR 291700Z 14007KT 20SM FEW210 19/12 A3004 RMK CI1 HZ SLP173 DENSITY ALT 200FT
気圧 30.04 インチ
視程 20.0 マイル
わずか 21000 ft
露点温度 53 °F
湿度 66%
降水 0.00 インチ
積雪深 利用不可。
5:14 AM 9:06 PM
三日月, 21% visible
METAR CYVR 291700Z 14007KT 20SM FEW210 19/12 A3004 RMK CI1 HZ SLP173 DENSITY ALT 200FT

Get Severe Weather Alerts

Thanks for signing up!

Be on the lookout for a verification email in your inbox.

You'll start receiving the daily forecast at 6 AM.

×

10-Day Weather Forecast

Almanac

天文

May. 29, 2017 入り
実時間
常用薄明
航海薄明
天文薄明
可視光の長さ
可照時間
Tomorrow will be .
, % of the Moon is Illuminated

今日の極値

Country Highs Country Lows

Community

Category 6

Welcome to Category 6. This is the collective home for Weather Underground's featured writeups by Dr. Jeff Masters (right), Bob Henson (left), Chris Burt, and other regular contributors.

Nearby

空気品質

  空気品質 大気質指数 汚染物質
Not available.

積雪深

Station Depth 高度

地震活動

Distance Mag. Time & Date
Minimum magnitude displayed is 2.5.

沿岸の水温

地名 気温

Stations

最寄りの気象観測所

観測所位置 温度 体感気温(寒さ) 露点温度 湿度 Precip. 高度 更新日時 タイプする
                   

Watches & Warnings

There are currently no watches in effect.